sensor_id;sensor_type;location;lat;lon;timestamp;pressure;altitude;pressure_sealevel;temperature;humidity
36386;BME280;24125;47.482;8.770;2023-02-13T00:00:06;98014.88;;;8.34;63.34
36386;BME280;24125;47.482;8.770;2023-02-13T00:02:40;98013.81;;;8.35;63.58
36386;BME280;24125;47.482;8.770;2023-02-13T00:05:14;98016.47;;;8.35;63.66
36386;BME280;24125;47.482;8.770;2023-02-13T00:07:46;98021.25;;;8.38;63.86
36386;BME280;24125;47.482;8.770;2023-02-13T00:10:19;98024.44;;;8.40;63.39
36386;BME280;24125;47.482;8.770;2023-02-13T00:12:52;98015.38;;;8.41;63.33
36386;BME280;24125;47.482;8.770;2023-02-13T00:15:25;98017.00;;;8.42;63.82
36386;BME280;24125;47.482;8.770;2023-02-13T00:18:00;98011.66;;;8.42;63.31
36386;BME280;24125;47.482;8.770;2023-02-13T00:20:33;98007.94;;;8.43;63.40
36386;BME280;24125;47.482;8.770;2023-02-13T00:23:06;98005.28;;;8.43;63.41
36386;BME280;24125;47.482;8.770;2023-02-13T00:25:39;98013.00;;;8.45;63.89
36386;BME280;24125;47.482;8.770;2023-02-13T00:28:12;98014.59;;;8.46;63.71
36386;BME280;24125;47.482;8.770;2023-02-13T00:30:45;98009.28;;;8.46;63.36
36386;BME280;24125;47.482;8.770;2023-02-13T00:33:20;98010.88;;;8.47;63.48
36386;BME280;24125;47.482;8.770;2023-02-13T00:36:01;98015.66;;;8.50;63.76
36386;BME280;24125;47.482;8.770;2023-02-13T00:38:35;98013.56;;;8.47;63.71
36386;BME280;24125;47.482;8.770;2023-02-13T00:41:08;98012.19;;;8.49;63.89
36386;BME280;24125;47.482;8.770;2023-02-13T00:43:42;98004.22;;;8.49;63.62
36386;BME280;24125;47.482;8.770;2023-02-13T00:46:15;98007.41;;;8.51;63.75
36386;BME280;24125;47.482;8.770;2023-02-13T00:48:50;98009.00;;;8.52;63.52
36386;BME280;24125;47.482;8.770;2023-02-13T00:51:23;98014.06;;;8.54;63.82
36386;BME280;24125;47.482;8.770;2023-02-13T00:53:56;98011.41;;;8.54;64.05
36386;BME280;24125;47.482;8.770;2023-02-13T00:56:29;98012.22;;;8.54;64.12
36386;BME280;24125;47.482;8.770;2023-02-13T00:59:02;98019.66;;;8.57;63.51
36386;BME280;24125;47.482;8.770;2023-02-13T01:01:35;98016.97;;;8.57;63.90
36386;BME280;24125;47.482;8.770;2023-02-13T01:04:09;98020.19;;;8.59;63.99
36386;BME280;24125;47.482;8.770;2023-02-13T01:06:42;98020.19;;;8.59;63.98
36386;BME280;24125;47.482;8.770;2023-02-13T01:09:15;98018.31;;;8.60;63.77
36386;BME280;24125;47.482;8.770;2023-02-13T01:11:48;98013.53;;;8.62;63.88
36386;BME280;24125;47.482;8.770;2023-02-13T01:14:22;98017.00;;;8.62;63.79
36386;BME280;24125;47.482;8.770;2023-02-13T01:16:55;98022.31;;;8.62;63.38
36386;BME280;24125;47.482;8.770;2023-02-13T01:19:29;98018.59;;;8.63;63.97
36386;BME280;24125;47.482;8.770;2023-02-13T01:22:09;98019.09;;;8.65;63.53
36386;BME280;24125;47.482;8.770;2023-02-13T01:24:47;98026.03;;;8.66;63.69
36386;BME280;24125;47.482;8.770;2023-02-13T01:27:20;98022.56;;;8.66;63.89
36386;BME280;24125;47.482;8.770;2023-02-13T01:29:53;98029.50;;;8.67;63.80
36386;BME280;24125;47.482;8.770;2023-02-13T01:32:31;98020.44;;;8.68;63.60
36386;BME280;24125;47.482;8.770;2023-02-13T01:35:07;98036.16;;;8.69;63.48
36386;BME280;24125;47.482;8.770;2023-02-13T01:37:41;98032.69;;;8.69;63.62
36386;BME280;24125;47.482;8.770;2023-02-13T01:40:14;98024.72;;;8.69;63.53
36386;BME280;24125;47.482;8.770;2023-02-13T01:42:48;98036.16;;;8.69;63.69
36386;BME280;24125;47.482;8.770;2023-02-13T01:45:28;98037.50;;;8.72;63.55
36386;BME280;24125;47.482;8.770;2023-02-13T01:48:02;98027.38;;;8.69;63.39
36386;BME280;24125;47.482;8.770;2023-02-13T01:50:42;98030.31;;;8.73;63.80
36386;BME280;24125;47.482;8.770;2023-02-13T01:53:23;98033.22;;;8.71;63.29
36386;BME280;24125;47.482;8.770;2023-02-13T01:56:14;98034.53;;;8.74;63.40
36386;BME280;24125;47.482;8.770;2023-02-13T01:58:56;98033.78;;;8.73;63.66
36386;BME280;24125;47.482;8.770;2023-02-13T02:01:31;98039.59;;;8.75;63.27
36386;BME280;24125;47.482;8.770;2023-02-13T02:04:07;98028.16;;;8.75;63.40
36386;BME280;24125;47.482;8.770;2023-02-13T02:06:45;98031.09;;;8.73;63.44
36386;BME280;24125;47.482;8.770;2023-02-13T02:09:25;98039.88;;;8.74;63.15
36386;BME280;24125;47.482;8.770;2023-02-13T02:12:03;98031.09;;;8.73;63.31
36386;BME280;24125;47.482;8.770;2023-02-13T02:14:37;98031.38;;;8.72;63.33
36386;BME280;24125;47.482;8.770;2023-02-13T02:17:12;98029.50;;;8.72;63.53
36386;BME280;24125;47.482;8.770;2023-02-13T02:19:49;98034.84;;;8.72;63.70
36386;BME280;24125;47.482;8.770;2023-02-13T02:26:24;98028.44;;;8.73;63.60
36386;BME280;24125;47.482;8.770;2023-02-13T02:32:40;98034.00;;;8.77;63.34
36386;BME280;24125;47.482;8.770;2023-02-13T02:35:25;98037.47;;;8.77;63.28
36386;BME280;24125;47.482;8.770;2023-02-13T02:38:13;98038.53;;;8.76;63.12
36386;BME280;24125;47.482;8.770;2023-02-13T02:40:55;98041.22;;;8.76;63.41
36386;BME280;24125;47.482;8.770;2023-02-13T02:43:41;98039.88;;;8.74;63.47
36386;BME280;24125;47.482;8.770;2023-02-13T02:46:22;98046.78;;;8.75;63.06
36386;BME280;24125;47.482;8.770;2023-02-13T02:49:03;98035.34;;;8.74;63.08
36386;BME280;24125;47.482;8.770;2023-02-13T02:52:00;98042.25;;;8.75;63.31
36386;BME280;24125;47.482;8.770;2023-02-13T02:54:41;98042.25;;;8.75;63.43
36386;BME280;24125;47.482;8.770;2023-02-13T02:57:39;98039.59;;;8.75;63.54
36386;BME280;24125;47.482;8.770;2023-02-13T03:00:33;98045.47;;;8.72;63.05
36386;BME280;24125;47.482;8.770;2023-02-13T03:03:23;98042.03;;;8.72;63.23
36386;BME280;24125;47.482;8.770;2023-02-13T03:06:21;98042.28;;;8.70;63.64
36386;BME280;24125;47.482;8.770;2023-02-13T03:08:59;98046.00;;;8.69;63.79
36386;BME280;24125;47.482;8.770;2023-02-13T03:11:53;98043.59;;;8.67;63.43
36386;BME280;24125;47.482;8.770;2023-02-13T03:14:44;98046.81;;;8.64;63.98
36386;BME280;24125;47.482;8.770;2023-02-13T03:17:18;98041.75;;;8.63;63.83
36386;BME280;24125;47.482;8.770;2023-02-13T03:20:14;98058.53;;;8.63;63.97
36386;BME280;24125;47.482;8.770;2023-02-13T03:23:34;98055.06;;;8.63;63.83
36386;BME280;24125;47.482;8.770;2023-02-13T03:26:35;98057.72;;;8.63;63.48
36386;BME280;24125;47.482;8.770;2023-02-13T03:29:30;98062.78;;;8.59;63.99
36386;BME280;24125;47.482;8.770;2023-02-13T03:32:33;98057.22;;;8.56;63.94
36386;BME280;24125;47.482;8.770;2023-02-13T03:35:21;98060.94;;;8.55;63.71
36386;BME280;24125;47.482;8.770;2023-02-13T03:38:17;98048.94;;;8.52;63.96
36386;BME280;24125;47.482;8.770;2023-02-13T03:40:57;98060.66;;;8.51;64.01
36386;BME280;24125;47.482;8.770;2023-02-13T03:44:05;98061.44;;;8.52;64.35
36386;BME280;24125;47.482;8.770;2023-02-13T03:46:45;98069.44;;;8.52;64.09
36386;BME280;24125;47.482;8.770;2023-02-13T03:49:21;98061.72;;;8.50;64.13
36386;BME280;24125;47.482;8.770;2023-02-13T03:52:18;98070.50;;;8.51;64.19
36386;BME280;24125;47.482;8.770;2023-02-13T03:55:02;98082.50;;;8.53;63.87
36386;BME280;24125;47.482;8.770;2023-02-13T03:57:55;98069.19;;;8.53;63.82
36386;BME280;24125;47.482;8.770;2023-02-13T04:00:49;98080.38;;;8.55;63.62
36386;BME280;24125;47.482;8.770;2023-02-13T04:03:27;98076.09;;;8.54;63.98
36386;BME280;24125;47.482;8.770;2023-02-13T04:06:06;98083.28;;;8.54;63.63
36386;BME280;24125;47.482;8.770;2023-02-13T04:08:42;98073.16;;;8.51;63.62
36386;BME280;24125;47.482;8.770;2023-02-13T04:11:20;98077.69;;;8.50;63.82
36386;BME280;24125;47.482;8.770;2023-02-13T04:13:58;98075.81;;;8.46;63.16
36386;BME280;24125;47.482;8.770;2023-02-13T04:16:34;98080.59;;;8.44;63.86
36386;BME280;24125;47.482;8.770;2023-02-13T04:19:15;98077.66;;;8.40;63.66
36386;BME280;24125;47.482;8.770;2023-02-13T04:21:54;98077.97;;;8.39;64.06
36386;BME280;24125;47.482;8.770;2023-02-13T04:24:29;98084.59;;;8.36;63.38
36386;BME280;24125;47.482;8.770;2023-02-13T04:27:03;98082.19;;;8.35;64.18
36386;BME280;24125;47.482;8.770;2023-02-13T04:29:36;98088.84;;;8.32;63.65
36386;BME280;24125;47.482;8.770;2023-02-13T04:32:10;98091.72;;;8.30;63.84
36386;BME280;24125;47.482;8.770;2023-02-13T04:34:43;98087.50;;;8.29;64.15
36386;BME280;24125;47.482;8.770;2023-02-13T04:37:16;98087.50;;;8.29;64.48
36386;BME280;24125;47.482;8.770;2023-02-13T04:39:49;98085.09;;;8.28;63.83
36386;BME280;24125;47.482;8.770;2023-02-13T04:42:27;98085.09;;;8.28;64.19
36386;BME280;24125;47.482;8.770;2023-02-13T04:45:00;98089.06;;;8.25;64.06
36386;BME280;24125;47.482;8.770;2023-02-13T04:47:36;98084.81;;;8.24;63.91
36386;BME280;24125;47.482;8.770;2023-02-13T04:50:09;98082.41;;;8.23;64.25
36386;BME280;24125;47.482;8.770;2023-02-13T04:52:43;98087.47;;;8.24;63.95
36386;BME280;24125;47.482;8.770;2023-02-13T04:55:15;98088.25;;;8.25;64.50
36386;BME280;24125;47.482;8.770;2023-02-13T04:57:52;98089.88;;;8.26;63.79
36386;BME280;24125;47.482;8.770;2023-02-13T05:00:27;98094.38;;;8.25;64.20
36386;BME280;24125;47.482;8.770;2023-02-13T05:03:03;98084.53;;;8.26;64.61
36386;BME280;24125;47.482;8.770;2023-02-13T05:05:38;98090.94;;;8.25;64.23
36386;BME280;24125;47.482;8.770;2023-02-13T05:08:11;98089.31;;;8.24;63.98
36386;BME280;24125;47.482;8.770;2023-02-13T05:10:44;98082.41;;;8.23;64.39
36386;BME280;24125;47.482;8.770;2023-02-13T05:13:20;98084.53;;;8.26;64.42
36386;BME280;24125;47.482;8.770;2023-02-13T05:15:53;98090.66;;;8.26;64.40
36386;BME280;24125;47.482;8.770;2023-02-13T05:18:26;98087.75;;;8.28;63.90
36386;BME280;24125;47.482;8.770;2023-02-13T05:20:59;98086.41;;;8.25;64.36
36386;BME280;24125;47.482;8.770;2023-02-13T05:23:50;98089.88;;;8.26;63.94
36386;BME280;24125;47.482;8.770;2023-02-13T05:26:23;98095.19;;;8.26;63.86
36386;BME280;24125;47.482;8.770;2023-02-13T05:28:57;98090.94;;;8.25;64.34
36386;BME280;24125;47.482;8.770;2023-02-13T05:31:56;98095.72;;;8.23;64.15
36386;BME280;24125;47.482;8.770;2023-02-13T05:34:30;98098.66;;;8.21;64.54
36386;BME280;24125;47.482;8.770;2023-02-13T05:37:03;98094.91;;;8.22;64.19
36386;BME280;24125;47.482;8.770;2023-02-13T05:39:36;98101.81;;;8.23;64.37
36386;BME280;24125;47.482;8.770;2023-02-13T05:42:12;98106.09;;;8.24;63.95
36386;BME280;24125;47.482;8.770;2023-02-13T05:44:46;98097.31;;;8.24;64.44
36386;BME280;24125;47.482;8.770;2023-02-13T05:47:20;98095.72;;;8.23;63.90
36386;BME280;24125;47.482;8.770;2023-02-13T05:49:53;98101.03;;;8.23;64.38
36386;BME280;24125;47.482;8.770;2023-02-13T05:52:26;98100.22;;;8.22;63.62
36386;BME280;24125;47.482;8.770;2023-02-13T05:55:01;98094.09;;;8.22;64.25
36386;BME280;24125;47.482;8.770;2023-02-13T05:57:34;98106.63;;;8.21;64.00
36386;BME280;24125;47.482;8.770;2023-02-13T06:00:09;98105.28;;;8.24;63.74
36386;BME280;24125;47.482;8.770;2023-02-13T06:02:45;98100.50;;;8.21;64.60
36386;BME280;24125;47.482;8.770;2023-02-13T06:05:20;98102.09;;;8.22;64.35
36386;BME280;24125;47.482;8.770;2023-02-13T06:07:53;98104.75;;;8.22;64.01
36386;BME280;24125;47.482;8.770;2023-02-13T06:10:26;98098.91;;;8.20;63.85
36386;BME280;24125;47.482;8.770;2023-02-13T06:12:59;98104.75;;;8.22;63.94
36386;BME280;24125;47.482;8.770;2023-02-13T06:15:33;98109.81;;;8.23;64.10
36386;BME280;24125;47.482;8.770;2023-02-13T06:18:07;98110.88;;;8.22;64.01
36386;BME280;24125;47.482;8.770;2023-02-13T06:20:40;98117.00;;;8.23;64.55
36386;BME280;24125;47.482;8.770;2023-02-13T06:23:13;98123.13;;;8.23;64.37
36386;BME280;24125;47.482;8.770;2023-02-13T06:25:46;98122.06;;;8.24;64.33
36386;BME280;24125;47.482;8.770;2023-02-13T06:28:19;98123.66;;;8.25;63.90
36386;BME280;24125;47.482;8.770;2023-02-13T06:30:53;98122.09;;;8.29;63.64
36386;BME280;24125;47.482;8.770;2023-02-13T06:33:27;98129.28;;;8.29;64.21
36386;BME280;24125;47.482;8.770;2023-02-13T06:36:00;98122.34;;;8.28;63.92
36386;BME280;24125;47.482;8.770;2023-02-13T06:38:33;98131.94;;;8.29;63.82
36386;BME280;24125;47.482;8.770;2023-02-13T06:41:06;98119.44;;;8.29;64.27
36386;BME280;24125;47.482;8.770;2023-02-13T06:43:39;98127.16;;;8.31;63.83
36386;BME280;24125;47.482;8.770;2023-02-13T06:46:13;98128.50;;;8.33;63.55
36386;BME280;24125;47.482;8.770;2023-02-13T06:48:46;98133.81;;;8.33;64.30
36386;BME280;24125;47.482;8.770;2023-02-13T06:51:19;98131.97;;;8.34;63.58
36386;BME280;24125;47.482;8.770;2023-02-13T06:53:52;98124.78;;;8.35;63.81
36386;BME280;24125;47.482;8.770;2023-02-13T06:56:25;98139.69;;;8.36;63.53
36386;BME280;24125;47.482;8.770;2023-02-13T06:58:58;98136.22;;;8.35;63.53
36386;BME280;24125;47.482;8.770;2023-02-13T07:01:32;98136.75;;;8.37;63.87
36386;BME280;24125;47.482;8.770;2023-02-13T07:04:05;98137.81;;;8.36;64.07
36386;BME280;24125;47.482;8.770;2023-02-13T07:06:38;98132.25;;;8.38;64.34
36386;BME280;24125;47.482;8.770;2023-02-13T07:09:11;98139.94;;;8.39;63.98
36386;BME280;24125;47.482;8.770;2023-02-13T07:11:44;98138.63;;;8.42;64.29
36386;BME280;24125;47.482;8.770;2023-02-13T07:14:17;98136.75;;;8.42;63.79
36386;BME280;24125;47.482;8.770;2023-02-13T07:16:52;98137.06;;;8.46;64.32
36386;BME280;24125;47.482;8.770;2023-02-13T07:19:25;98137.84;;;8.46;64.25
36386;BME280;24125;47.482;8.770;2023-02-13T07:21:58;98145.28;;;8.49;63.97
36386;BME280;24125;47.482;8.770;2023-02-13T07:24:31;98136.25;;;8.50;64.13
36386;BME280;24125;47.482;8.770;2023-02-13T07:27:05;98135.19;;;8.51;63.97
36386;BME280;24125;47.482;8.770;2023-02-13T07:29:38;98139.44;;;8.52;63.43
36386;BME280;24125;47.482;8.770;2023-02-13T07:32:13;98140.50;;;8.56;63.59
36386;BME280;24125;47.482;8.770;2023-02-13T07:34:46;98144.25;;;8.55;64.28
36386;BME280;24125;47.482;8.770;2023-02-13T07:37:32;98154.09;;;8.60;63.52
36386;BME280;24125;47.482;8.770;2023-02-13T07:40:06;98154.66;;;8.62;63.09
36386;BME280;24125;47.482;8.770;2023-02-13T07:42:39;98149.31;;;8.62;63.99
36386;BME280;24125;47.482;8.770;2023-02-13T07:45:12;98153.03;;;8.66;63.50
36386;BME280;24125;47.482;8.770;2023-02-13T07:47:55;98156.25;;;8.68;63.34
36386;BME280;24125;47.482;8.770;2023-02-13T07:50:28;98158.66;;;8.69;63.31
36386;BME280;24125;47.482;8.770;2023-02-13T07:53:01;98161.06;;;8.71;63.75
36386;BME280;24125;47.482;8.770;2023-02-13T07:55:35;98155.47;;;8.73;63.31
36386;BME280;24125;47.482;8.770;2023-02-13T07:58:10;98166.38;;;8.76;63.78
36386;BME280;24125;47.482;8.770;2023-02-13T08:00:43;98158.13;;;8.78;63.43
36386;BME280;24125;47.482;8.770;2023-02-13T08:03:17;98163.44;;;8.83;63.62
36386;BME280;24125;47.482;8.770;2023-02-13T08:05:50;98152.53;;;8.84;63.27
36386;BME280;24125;47.482;8.770;2023-02-13T08:08:23;98160.25;;;8.86;63.38
36386;BME280;24125;47.482;8.770;2023-02-13T08:10:56;98162.41;;;8.89;63.48
36386;BME280;24125;47.482;8.770;2023-02-13T08:13:52;98160.78;;;8.93;63.02
36386;BME280;24125;47.482;8.770;2023-02-13T08:16:24;98159.47;;;8.95;63.22
36386;BME280;24125;47.482;8.770;2023-02-13T08:18:59;98156.78;;;9.00;63.34
36386;BME280;24125;47.482;8.770;2023-02-13T08:21:32;98156.00;;;9.05;63.36
36386;BME280;24125;47.482;8.770;2023-02-13T08:24:06;98154.13;;;9.11;63.36
36386;BME280;24125;47.482;8.770;2023-02-13T08:26:39;98156.00;;;9.15;63.15
36386;BME280;24125;47.482;8.770;2023-02-13T08:29:12;98157.06;;;9.19;62.92
36386;BME280;24125;47.482;8.770;2023-02-13T08:31:45;98161.03;;;9.27;62.86
36386;BME280;24125;47.482;8.770;2023-02-13T08:34:19;98159.19;;;9.32;62.89
36386;BME280;24125;47.482;8.770;2023-02-13T08:36:52;98159.97;;;9.38;63.08
36386;BME280;24125;47.482;8.770;2023-02-13T08:39:25;98162.63;;;9.43;62.76
36386;BME280;24125;47.482;8.770;2023-02-13T08:41:58;98167.44;;;9.51;62.92
36386;BME280;24125;47.482;8.770;2023-02-13T08:44:31;98164.47;;;9.58;62.32
36386;BME280;24125;47.482;8.770;2023-02-13T08:47:04;98164.44;;;9.63;62.07
36386;BME280;24125;47.482;8.770;2023-02-13T08:49:39;98163.38;;;9.69;61.81
36386;BME280;24125;47.482;8.770;2023-02-13T08:52:12;98170.56;;;9.73;62.06
36386;BME280;24125;47.482;8.770;2023-02-13T08:54:45;98166.00;;;9.79;61.67
36386;BME280;24125;47.482;8.770;2023-02-13T08:57:18;98170.81;;;9.82;61.46
36386;BME280;24125;47.482;8.770;2023-02-13T08:59:50;98172.38;;;9.88;61.65
36386;BME280;24125;47.482;8.770;2023-02-13T09:02:23;98183.84;;;9.94;61.71
36386;BME280;24125;47.482;8.770;2023-02-13T09:04:58;98177.69;;;9.98;61.48
36386;BME280;24125;47.482;8.770;2023-02-13T09:07:31;98176.09;;;10.02;61.65
36386;BME280;24125;47.482;8.770;2023-02-13T09:10:04;98177.94;;;10.07;61.50
36386;BME280;24125;47.482;8.770;2023-02-13T09:12:38;98177.63;;;10.13;61.33
36386;BME280;24125;47.482;8.770;2023-02-13T09:15:11;98176.06;;;10.17;61.39
36386;BME280;24125;47.482;8.770;2023-02-13T09:17:44;98180.03;;;10.25;61.47
36386;BME280;24125;47.482;8.770;2023-02-13T09:20:18;98180.78;;;10.31;60.92
36386;BME280;24125;47.482;8.770;2023-02-13T09:22:51;98178.09;;;10.36;60.54
36386;BME280;24125;47.482;8.770;2023-02-13T09:25:24;98176.47;;;10.40;60.25
36386;BME280;24125;47.482;8.770;2023-02-13T09:27:58;98176.19;;;10.46;61.02
36386;BME280;24125;47.482;8.770;2023-02-13T09:30:31;98175.88;;;10.53;60.58
36386;BME280;24125;47.482;8.770;2023-02-13T09:33:09;98179.84;;;10.61;60.60
36386;BME280;24125;47.482;8.770;2023-02-13T09:35:43;98175.53;;;10.65;60.87
36386;BME280;24125;47.482;8.770;2023-02-13T09:38:16;98174.16;;;10.72;60.28
36386;BME280;24125;47.482;8.770;2023-02-13T09:40:53;98169.31;;;10.79;59.79
36386;BME280;24125;47.482;8.770;2023-02-13T09:43:28;98171.94;;;10.84;60.19
36386;BME280;24125;47.482;8.770;2023-02-13T09:46:08;98173.72;;;10.94;59.74
36386;BME280;24125;47.482;8.770;2023-02-13T09:48:47;98172.09;;;10.98;59.67
36386;BME280;24125;47.482;8.770;2023-02-13T09:51:26;98182.47;;;11.05;59.35
36386;BME280;24125;47.482;8.770;2023-02-13T09:54:02;98172.00;;;11.08;59.52
36386;BME280;24125;47.482;8.770;2023-02-13T09:56:46;98175.44;;;11.14;59.90
36386;BME280;24125;47.482;8.770;2023-02-13T09:59:33;98177.00;;;11.20;59.47
36386;BME280;24125;47.482;8.770;2023-02-13T10:02:35;98173.19;;;11.26;59.63
36386;BME280;24125;47.482;8.770;2023-02-13T10:05:22;98173.97;;;11.31;59.05
36386;BME280;24125;47.482;8.770;2023-02-13T10:08:05;98180.84;;;11.38;58.99
36386;BME280;24125;47.482;8.770;2023-02-13T10:10:51;98183.78;;;11.41;58.44
36386;BME280;24125;47.482;8.770;2023-02-13T10:13:34;98180.53;;;11.44;58.67
36386;BME280;24125;47.482;8.770;2023-02-13T10:16:16;98184.53;;;11.47;59.37
36386;BME280;24125;47.482;8.770;2023-02-13T10:18:53;98177.28;;;11.47;58.94
36386;BME280;24125;47.482;8.770;2023-02-13T10:21:33;98187.94;;;11.52;58.89
36386;BME280;24125;47.482;8.770;2023-02-13T10:24:13;98180.16;;;11.56;58.83
36386;BME280;24125;47.482;8.770;2023-02-13T10:26:49;98175.03;;;11.59;59.71
36386;BME280;24125;47.482;8.770;2023-02-13T10:29:26;98177.59;;;11.69;59.63
36386;BME280;24125;47.482;8.770;2023-02-13T10:32:25;98175.72;;;11.75;59.31
36386;BME280;24125;47.482;8.770;2023-02-13T10:35:02;98167.06;;;11.83;58.88
36386;BME280;24125;47.482;8.770;2023-02-13T10:37:36;98165.91;;;11.89;58.74
36386;BME280;24125;47.482;8.770;2023-02-13T10:40:13;98163.69;;;11.96;58.79
36386;BME280;24125;47.482;8.770;2023-02-13T10:42:53;98174.03;;;12.03;58.51
36386;BME280;24125;47.482;8.770;2023-02-13T10:45:44;98160.34;;;12.09;58.09
36386;BME280;24125;47.482;8.770;2023-02-13T10:48:44;98153.81;;;12.16;57.62
36386;BME280;24125;47.482;8.770;2023-02-13T10:51:26;98149.78;;;12.18;57.48
36386;BME280;24125;47.482;8.770;2023-02-13T10:54:20;98152.16;;;12.20;57.36
36386;BME280;24125;47.482;8.770;2023-02-13T10:57:01;98140.34;;;12.21;57.11
36386;BME280;24125;47.482;8.770;2023-02-13T10:59:49;98142.25;;;12.20;56.90
36386;BME280;24125;47.482;8.770;2023-02-13T11:02:28;98135.31;;;12.19;57.38
36386;BME280;24125;47.482;8.770;2023-02-13T11:05:12;98133.72;;;12.18;57.07
36386;BME280;24125;47.482;8.770;2023-02-13T11:07:47;98130.00;;;12.14;57.08
36386;BME280;24125;47.482;8.770;2023-02-13T11:10:22;98133.25;;;12.11;56.76
36386;BME280;24125;47.482;8.770;2023-02-13T11:13:14;98126.91;;;12.07;56.46
36386;BME280;24125;47.482;8.770;2023-02-13T11:16:01;98123.19;;;12.03;56.45
36386;BME280;24125;47.482;8.770;2023-02-13T11:18:38;98121.66;;;11.97;56.22
36386;BME280;24125;47.482;8.770;2023-02-13T11:21:15;98123.03;;;11.94;56.55
36386;BME280;24125;47.482;8.770;2023-02-13T11:23:52;98126.31;;;11.86;56.50
36386;BME280;24125;47.482;8.770;2023-02-13T11:26:31;98125.88;;;11.79;56.66
36386;BME280;24125;47.482;8.770;2023-02-13T11:29:17;98125.13;;;11.73;56.06
36386;BME280;24125;47.482;8.770;2023-02-13T11:32:03;98122.28;;;11.65;56.24
36386;BME280;24125;47.482;8.770;2023-02-13T11:34:37;98120.53;;;11.50;56.54
36386;BME280;24125;47.482;8.770;2023-02-13T11:37:16;98115.00;;;11.42;55.85
36386;BME280;24125;47.482;8.770;2023-02-13T11:39:52;98116.78;;;11.27;56.02
36386;BME280;24125;47.482;8.770;2023-02-13T11:42:28;98114.78;;;11.14;56.67
36386;BME280;24125;47.482;8.770;2023-02-13T11:45:05;98106.59;;;11.01;56.99
36386;BME280;24125;47.482;8.770;2023-02-13T11:47:41;98107.53;;;10.86;56.91
36386;BME280;24125;47.482;8.770;2023-02-13T11:50:24;98106.53;;;10.77;56.88
36386;BME280;24125;47.482;8.770;2023-02-13T11:52:59;98105.78;;;10.66;57.12
36386;BME280;24125;47.482;8.770;2023-02-13T11:55:35;98101.06;;;10.58;57.99
36386;BME280;24125;47.482;8.770;2023-02-13T11:58:23;98103.25;;;10.51;57.66
36386;BME280;24125;47.482;8.770;2023-02-13T12:01:35;98111.84;;;10.43;57.81
36386;BME280;24125;47.482;8.770;2023-02-13T12:04:13;98110.28;;;10.37;58.49
36386;BME280;24125;47.482;8.770;2023-02-13T12:06:58;98103.88;;;10.33;58.17
36386;BME280;24125;47.482;8.770;2023-02-13T12:09:31;98099.13;;;10.25;58.40
36386;BME280;24125;47.482;8.770;2023-02-13T12:12:05;98101.28;;;10.23;58.79
36386;BME280;24125;47.482;8.770;2023-02-13T12:14:41;98095.97;;;10.17;58.81
36386;BME280;24125;47.482;8.770;2023-02-13T12:17:18;98097.28;;;10.15;59.14
36386;BME280;24125;47.482;8.770;2023-02-13T12:20:02;98093.06;;;10.09;59.18
36386;BME280;24125;47.482;8.770;2023-02-13T12:22:43;98099.19;;;10.09;58.82
36386;BME280;24125;47.482;8.770;2023-02-13T12:25:36;98088.78;;;10.08;59.35
36386;BME280;24125;47.482;8.770;2023-02-13T12:28:14;98084.25;;;10.03;59.05
36386;BME280;24125;47.482;8.770;2023-02-13T12:31:18;98082.69;;;10.02;59.35
36386;BME280;24125;47.482;8.770;2023-02-13T12:34:15;98072.28;;;10.01;59.28
36386;BME280;24125;47.482;8.770;2023-02-13T12:37:03;98076.28;;;9.98;59.46
36386;BME280;24125;47.482;8.770;2023-02-13T12:39:40;98076.03;;;9.95;59.51
36386;BME280;24125;47.482;8.770;2023-02-13T12:42:28;98070.69;;;9.95;59.48
36386;BME280;24125;47.482;8.770;2023-02-13T12:45:16;98074.72;;;9.92;59.65
36386;BME280;24125;47.482;8.770;2023-02-13T12:48:10;98068.06;;;9.90;59.83
36386;BME280;24125;47.482;8.770;2023-02-13T12:50:56;98075.28;;;9.89;59.77
36386;BME280;24125;47.482;8.770;2023-02-13T12:53:41;98069.94;;;9.89;60.23
36386;BME280;24125;47.482;8.770;2023-02-13T12:56:27;98070.19;;;9.93;60.30
36386;BME280;24125;47.482;8.770;2023-02-13T12:59:08;98067.53;;;9.93;60.02
36386;BME280;24125;47.482;8.770;2023-02-13T13:02:09;98058.47;;;9.94;59.98
36386;BME280;24125;47.482;8.770;2023-02-13T13:04:54;98060.81;;;9.95;59.99
36386;BME280;24125;47.482;8.770;2023-02-13T13:07:48;98050.94;;;9.96;60.13
36386;BME280;24125;47.482;8.770;2023-02-13T13:10:36;98055.22;;;9.97;60.15
36386;BME280;24125;47.482;8.770;2023-02-13T13:13:25;98051.75;;;10.01;59.82
36386;BME280;24125;47.482;8.770;2023-02-13T13:16:07;98046.13;;;10.03;60.15
36386;BME280;24125;47.482;8.770;2023-02-13T13:18:50;98045.34;;;10.02;59.91
36386;BME280;24125;47.482;8.770;2023-02-13T13:21:32;98044.53;;;10.02;59.88
36386;BME280;24125;47.482;8.770;2023-02-13T13:24:11;98029.88;;;9.99;60.02
36386;BME280;24125;47.482;8.770;2023-02-13T13:26:48;98043.72;;;10.01;60.32
36386;BME280;24125;47.482;8.770;2023-02-13T13:29:26;98034.94;;;10.01;60.24
36386;BME280;24125;47.482;8.770;2023-02-13T13:32:05;98036.22;;;10.03;60.51
36386;BME280;24125;47.482;8.770;2023-02-13T13:34:39;98036.22;;;10.03;60.53
36386;BME280;24125;47.482;8.770;2023-02-13T13:37:20;98029.56;;;10.06;60.33
36386;BME280;24125;47.482;8.770;2023-02-13T13:40:04;98023.94;;;10.07;60.48
36386;BME280;24125;47.482;8.770;2023-02-13T13:42:46;98016.47;;;10.09;60.44
36386;BME280;24125;47.482;8.770;2023-02-13T13:45:26;98025.78;;;10.12;60.25
36386;BME280;24125;47.482;8.770;2023-02-13T13:48:17;98020.16;;;10.18;60.48
36386;BME280;24125;47.482;8.770;2023-02-13T13:50:52;98020.16;;;10.18;60.27
36386;BME280;24125;47.482;8.770;2023-02-13T13:53:25;98019.91;;;10.20;60.25
36386;BME280;24125;47.482;8.770;2023-02-13T13:56:04;98025.19;;;10.25;59.77
36386;BME280;24125;47.482;8.770;2023-02-13T13:58:42;98021.72;;;10.25;60.09
36386;BME280;24125;47.482;8.770;2023-02-13T14:01:17;98027.06;;;10.25;60.19
36386;BME280;24125;47.482;8.770;2023-02-13T14:03:52;98024.41;;;10.25;60.14
36386;BME280;24125;47.482;8.770;2023-02-13T14:06:27;98027.59;;;10.27;60.43
36386;BME280;24125;47.482;8.770;2023-02-13T14:09:37;98035.56;;;10.32;60.17
36386;BME280;24125;47.482;8.770;2023-02-13T14:12:44;98031.00;;;10.32;60.12
36386;BME280;24125;47.482;8.770;2023-02-13T14:15:49;98034.47;;;10.33;60.16